Time;durP1;ratioP1;P1;durP2;ratioP2;P2;SDS_P1;SDS_P2;PMS_P1;PMS_P2;Temp;Humidity;BMP_temperature;BMP_pressure;BME280_temperature;BME280_humidity;BME280_pressure;Samples;Min_cycle;Max_cycle;Signal;HPM_P1;HPM_P2
2022/07/03 00:01:52;;;;;;;5.87;5.47;;;21.60;86.70;;;;;;5113010;28;20441;-73
2022/07/03 00:04:20;;;;;;;5.57;5.17;;;21.60;89.70;;;;;;5130097;27;20838;-72
2022/07/03 00:06:46;;;;;;;6.53;5.73;;;21.60;90.50;;;;;;5133795;27;20446;-72
2022/07/03 00:09:12;;;;;;;6.30;5.80;;;21.50;90.20;;;;;;5131164;27;20420;-72
2022/07/03 00:11:38;;;;;;;5.70;5.40;;;21.50;89.70;;;;;;5133920;27;20409;-72
2022/07/03 00:14:04;;;;;;;6.10;5.60;;;21.50;90.30;;;;;;5133176;27;20754;-72
2022/07/03 00:16:30;;;;;;;5.57;5.23;;;21.40;90.50;;;;;;5133870;27;20175;-72
2022/07/03 00:18:56;;;;;;;5.50;5.20;;;21.40;90.20;;;;;;5132009;27;20790;-72
2022/07/03 00:21:28;;;;;;;6.00;5.60;;;21.30;90.10;;;;;;5133836;27;20222;-72
2022/07/03 00:24:09;;;;;;;5.50;5.20;;;21.20;90.00;;;;;;5131987;27;20459;-74
2022/07/03 00:26:39;;;;;;;6.67;6.17;;;21.20;90.80;;;;;;5131825;27;20904;-73
2022/07/03 00:29:08;;;;;;;6.30;5.90;;;21.10;90.80;;;;;;5121558;27;20456;-72
2022/07/03 00:31:34;;;;;;;5.73;5.33;;;21.10;91.00;;;;;;5133606;27;20491;-72
2022/07/03 00:34:01;;;;;;;5.80;5.40;;;21.10;91.20;;;;;;5132789;27;20512;-72
2022/07/03 00:36:34;;;;;;;6.10;5.60;;;21.00;91.10;;;;;;5131096;27;20253;-72
2022/07/03 00:39:01;;;;;;;6.50;5.90;;;21.00;91.30;;;;;;5133064;27;20707;-72
2022/07/03 00:41:29;;;;;;;6.43;5.93;;;21.00;91.40;;;;;;5133379;27;20426;-72
2022/07/03 00:43:55;;;;;;;6.77;6.27;;;20.90;91.60;;;;;;5132854;27;20460;-73
2022/07/03 00:46:24;;;;;;;5.90;5.50;;;20.90;91.80;;;;;;5133369;27;20437;-72
2022/07/03 00:48:51;;;;;;;5.60;5.30;;;20.90;91.60;;;;;;5131675;27;20823;-72
2022/07/03 00:51:23;;;;;;;5.93;5.43;;;20.80;91.90;;;;;;5132865;27;21198;-72
2022/07/03 00:53:52;;;;;;;6.07;5.60;;;20.80;92.30;;;;;;5131503;27;20751;-72
2022/07/03 00:56:21;;;;;;;5.73;5.43;;;20.80;92.80;;;;;;5132512;27;20421;-72
2022/07/03 00:58:47;;;;;;;5.80;5.40;;;20.70;92.70;;;;;;5113259;28;20809;-72
2022/07/03 01:01:18;;;;;;;5.80;5.40;;;20.70;93.10;;;;;;5111895;28;20390;-72
2022/07/03 01:03:45;;;;;;;5.30;5.03;;;20.60;93.00;;;;;;5112509;28;21001;-72
2022/07/03 01:06:14;;;;;;;5.50;5.20;;;20.60;93.00;;;;;;5111830;28;20393;-72
2022/07/03 01:08:48;;;;;;;5.83;5.50;;;20.60;92.90;;;;;;5132447;28;20480;-71
2022/07/03 01:11:52;;;;;;;5.83;5.43;;;20.50;93.00;;;;;;5132448;28;20819;-72
2022/07/03 01:14:27;;;;;;;5.50;5.10;;;20.50;93.60;;;;;;5132554;28;20438;-72
2022/07/03 01:17:03;;;;;;;5.77;5.47;;;20.50;94.10;;;;;;5131860;28;20924;-72
2022/07/03 01:19:48;;;;;;;6.63;6.13;;;20.50;94.50;;;;;;5133001;28;20424;-72
2022/07/03 01:22:20;;;;;;;5.43;4.97;;;20.50;94.30;;;;;;5132159;28;20822;-72
2022/07/03 01:25:06;;;;;;;6.37;5.90;;;20.50;94.40;;;;;;5133076;28;20503;-72
2022/07/03 01:27:47;;;;;;;5.73;5.33;;;20.50;94.20;;;;;;5120521;28;20418;-72
2022/07/03 01:30:13;;;;;;;5.57;5.23;;;20.40;93.90;;;;;;5110877;28;20500;-71
2022/07/03 01:32:53;;;;;;;6.00;5.60;;;20.40;93.90;;;;;;5111087;28;20845;-72
2022/07/03 01:35:24;;;;;;;6.07;5.57;;;20.40;94.40;;;;;;5110633;28;20799;-72
2022/07/03 01:37:51;;;;;;;6.40;6.00;;;20.40;94.60;;;;;;5133035;28;20399;-72
2022/07/03 01:40:17;;;;;;;6.13;5.73;;;20.40;94.90;;;;;;5130853;28;20397;-72
2022/07/03 01:42:45;;;;;;;5.67;5.37;;;20.30;95.00;;;;;;5131804;28;20490;-72
2022/07/03 01:45:13;;;;;;;5.93;5.47;;;20.30;94.80;;;;;;5131835;28;20496;-72
2022/07/03 01:47:42;;;;;;;6.37;5.87;;;20.30;94.40;;;;;;5133131;27;20428;-71
2022/07/03 01:50:12;;;;;;;5.83;5.43;;;20.20;94.20;;;;;;5125195;27;20486;-72
2022/07/03 01:52:40;;;;;;;6.20;5.70;;;20.10;94.40;;;;;;5136738;27;20417;-71
2022/07/03 01:55:08;;;;;;;6.50;5.90;;;20.10;94.90;;;;;;5135874;27;20432;-72
2022/07/03 01:57:48;;;;;;;5.70;5.40;;;20.10;94.90;;;;;;5136707;27;20411;-71
2022/07/03 02:00:17;;;;;;;6.00;5.60;;;20.00;94.90;;;;;;5126000;27;20983;-72
2022/07/03 02:03:04;;;;;;;5.70;5.30;;;20.00;95.30;;;;;;5113799;28;20485;-72
2022/07/03 02:05:37;;;;;;;6.40;5.47;;;20.00;95.40;;;;;;5113960;27;20425;-72
2022/07/03 02:08:14;;;;;;;5.60;5.30;;;20.00;95.00;;;;;;5125321;27;20428;-72
2022/07/03 02:10:51;;;;;;;6.00;5.60;;;19.90;95.20;;;;;;5136438;27;20485;-71
2022/07/03 02:13:22;;;;;;;5.70;5.40;;;19.80;95.70;;;;;;5135326;27;20940;-72
2022/07/03 02:15:51;;;;;;;5.83;5.43;;;19.80;95.70;;;;;;5136330;27;20460;-72
2022/07/03 02:18:28;;;;;;;6.00;5.60;;;19.70;95.60;;;;;;5135003;27;20425;-72
2022/07/03 02:21:15;;;;;;;6.03;5.63;;;19.80;96.00;;;;;;5122349;27;20920;-71
2022/07/03 02:24:19;;;;;;;6.20;5.73;;;19.60;96.20;;;;;;5114645;28;20502;-72
2022/07/03 02:27:05;;;;;;;5.43;5.13;;;19.60;96.00;;;;;;5093887;28;20449;-72
2022/07/03 02:29:33;;;;;;;7.80;5.40;;;19.40;95.70;;;;;;5100778;27;20431;-72
2022/07/03 02:32:03;;;;;;;5.33;4.93;;;19.30;95.80;;;;;;5135828;27;20495;-73
2022/07/03 02:34:30;;;;;;;5.60;5.20;;;19.30;96.30;;;;;;5136193;27;20494;-72
2022/07/03 02:37:05;;;;;;;5.30;5.00;;;19.30;96.60;;;;;;5133299;27;20420;-72
2022/07/03 02:39:57;;;;;;;5.07;4.77;;;19.30;96.50;;;;;;5135829;27;20737;-72
2022/07/03 02:42:29;;;;;;;5.23;4.83;;;19.40;96.80;;;;;;5134643;27;20727;-72
2022/07/03 02:44:59;;;;;;;5.77;5.27;;;19.40;96.90;;;;;;5134030;27;20912;-71
2022/07/03 02:47:57;;;;;;;5.23;5.03;;;19.40;96.40;;;;;;5134754;27;20872;-71
2022/07/03 02:50:25;;;;;;;5.57;5.27;;;19.40;96.50;;;;;;5123650;27;20426;-70
2022/07/03 02:53:01;;;;;;;5.50;5.20;;;19.50;96.90;;;;;;5114991;28;20808;-71
2022/07/03 02:55:47;;;;;;;6.47;5.13;;;19.40;96.70;;;;;;5113267;28;20413;-72
2022/07/03 02:58:46;;;;;;;5.30;5.07;;;19.50;96.70;;;;;;5113477;28;20428;-72
2022/07/03 03:01:34;;;;;;;6.23;5.80;;;19.50;96.60;;;;;;5111531;28;20410;-72
2022/07/03 03:04:15;;;;;;;5.67;5.37;;;19.50;96.50;;;;;;5126252;27;20487;-72
2022/07/03 03:06:48;;;;;;;6.20;5.80;;;19.40;96.60;;;;;;5135387;27;20401;-72
2022/07/03 03:09:22;;;;;;;5.30;5.00;;;19.40;96.80;;;;;;5134447;27;20393;-72
2022/07/03 03:11:48;;;;;;;5.73;5.37;;;19.30;96.70;;;;;;5134937;27;20842;-72
2022/07/03 03:14:19;;;;;;;5.50;5.20;;;19.30;96.60;;;;;;5132282;27;20503;-72
2022/07/03 03:16:53;;;;;;;5.80;5.50;;;19.30;96.50;;;;;;5134964;27;20396;-71
2022/07/03 03:19:23;;;;;;;5.47;5.17;;;19.20;96.70;;;;;;5132930;27;20429;-72
2022/07/03 03:22:04;;;;;;;5.30;5.00;;;19.20;97.00;;;;;;5111974;28;20461;-72
2022/07/03 03:24:31;;;;;;;5.43;5.00;;;19.20;96.80;;;;;;5114150;28;20438;-71
2022/07/03 03:26:58;;;;;;;5.67;5.10;;;19.20;97.20;;;;;;5131050;27;20472;-71
2022/07/03 03:29:24;;;;;;;5.40;5.00;;;19.20;98.00;;;;;;5134279;27;20415;-71
2022/07/03 03:31:50;;;;;;;5.60;5.20;;;19.20;97.40;;;;;;5134736;27;20397;-72
2022/07/03 03:34:17;;;;;;;4.80;4.50;;;19.20;97.10;;;;;;5132794;27;20416;-72
2022/07/03 03:36:43;;;;;;;4.80;4.40;;;19.20;97.30;;;;;;5131811;27;20315;-72
2022/07/03 03:39:08;;;;;;;5.53;5.13;;;19.20;97.70;;;;;;5134095;27;20469;-72
2022/07/03 03:41:34;;;;;;;5.00;4.70;;;19.20;97.80;;;;;;5134583;27;20400;-72
2022/07/03 03:44:00;;;;;;;4.90;4.60;;;19.20;98.00;;;;;;5134417;27;20719;-72
2022/07/03 03:46:26;;;;;;;5.30;5.00;;;19.20;98.00;;;;;;5133707;27;20279;-72
2022/07/03 03:48:52;;;;;;;5.47;4.90;;;19.20;98.10;;;;;;5134038;27;20903;-71
2022/07/03 03:51:17;;;;;;;4.50;4.30;;;19.20;98.10;;;;;;5115003;27;20187;-72
2022/07/03 03:53:43;;;;;;;4.50;4.30;;;19.20;97.90;;;;;;5124066;27;20199;-71
2022/07/03 03:56:12;;;;;;;5.13;4.83;;;19.20;98.00;;;;;;5123119;27;20183;-72
2022/07/03 03:58:39;;;;;;;4.57;4.37;;;19.30;98.10;;;;;;5134171;27;20534;-72
2022/07/03 04:01:08;;;;;;;5.63;5.23;;;19.30;97.50;;;;;;5123628;27;20784;-74
2022/07/03 04:03:35;;;;;;;5.07;4.77;;;19.30;97.50;;;;;;5132863;27;20474;-72
2022/07/03 04:06:01;;;;;;;4.60;4.40;;;19.30;97.60;;;;;;5132658;27;20418;-72
2022/07/03 04:08:28;;;;;;;5.10;4.80;;;19.30;97.60;;;;;;5133245;27;20393;-72
2022/07/03 04:10:54;;;;;;;5.40;5.10;;;19.40;96.80;;;;;;5133608;27;20499;-72
2022/07/03 04:13:20;;;;;;;5.53;5.13;;;19.40;96.70;;;;;;5133138;27;20516;-72
2022/07/03 04:15:47;;;;;;;5.80;5.30;;;19.40;96.10;;;;;;5100330;27;20425;-72
2022/07/03 04:18:13;;;;;;;5.20;4.97;;;19.30;95.80;;;;;;5124920;27;20418;-72
2022/07/03 04:20:39;;;;;;;5.17;4.87;;;19.20;96.00;;;;;;5137170;27;20526;-71
2022/07/03 04:23:04;;;;;;;5.30;5.00;;;19.10;96.50;;;;;;5133788;27;20201;-71
2022/07/03 04:25:30;;;;;;;5.43;5.13;;;19.10;97.20;;;;;;5133026;27;20248;-71
2022/07/03 04:27:56;;;;;;;5.27;4.77;;;19.10;96.90;;;;;;5132554;27;20611;-71
2022/07/03 04:30:22;;;;;;;5.17;4.87;;;19.10;97.70;;;;;;5132852;27;20173;-72
2022/07/03 04:32:49;;;;;;;5.60;5.27;;;19.10;97.50;;;;;;5133405;27;20455;-71
2022/07/03 04:35:15;;;;;;;5.90;5.50;;;19.20;97.20;;;;;;5131471;27;20420;-72
2022/07/03 04:37:42;;;;;;;5.97;5.57;;;19.30;96.90;;;;;;5133280;27;20815;-71
2022/07/03 04:40:08;;;;;;;5.57;5.27;;;19.30;97.10;;;;;;5131492;27;20175;-73
2022/07/03 04:42:34;;;;;;;5.87;5.50;;;19.20;97.00;;;;;;5133336;27;20530;-71
2022/07/03 04:45:01;;;;;;;5.07;4.80;;;19.20;96.90;;;;;;5132035;27;20516;-71
2022/07/03 04:47:27;;;;;;;5.40;5.10;;;19.20;97.00;;;;;;5120167;27;21261;-72
2022/07/03 04:49:52;;;;;;;5.10;4.90;;;19.30;97.10;;;;;;5112862;28;20406;-71
2022/07/03 04:52:18;;;;;;;5.50;5.10;;;19.30;96.80;;;;;;5124830;27;20179;-71
2022/07/03 04:54:44;;;;;;;5.00;4.70;;;19.30;96.60;;;;;;5133456;27;20174;-71
2022/07/03 04:57:10;;;;;;;8.77;5.93;;;19.30;96.40;;;;;;5129813;27;20186;-74
2022/07/03 04:59:35;;;;;;;5.43;5.13;;;19.40;96.30;;;;;;5133089;27;20254;-71
2022/07/03 05:02:01;;;;;;;5.23;4.83;;;19.50;96.40;;;;;;5133293;28;20552;-72
2022/07/03 05:04:27;;;;;;;6.27;5.77;;;19.60;96.20;;;;;;5129185;28;20183;-72
2022/07/03 05:06:53;;;;;;;6.27;5.87;;;19.60;95.80;;;;;;5122725;28;20433;-71
2022/07/03 05:09:18;;;;;;;5.50;5.20;;;19.70;95.60;;;;;;5108912;28;20179;-72
2022/07/03 05:11:45;;;;;;;4.50;4.30;;;19.80;95.40;;;;;;5130772;28;20175;-72
2022/07/03 05:14:10;;;;;;;5.13;4.73;;;19.80;95.70;;;;;;5128750;28;20179;-74
2022/07/03 05:16:36;;;;;;;13.03;11.80;;;19.90;95.20;;;;;;5122040;28;20943;-72
2022/07/03 05:19:02;;;;;;;7.37;6.80;;;19.90;95.70;;;;;;5112945;28;20179;-72
2022/07/03 05:21:28;;;;;;;9.70;8.77;;;19.90;95.50;;;;;;5111311;28;20242;-72
2022/07/03 05:23:54;;;;;;;6.47;5.87;;;19.90;95.60;;;;;;5114664;28;20940;-72
2022/07/03 05:26:19;;;;;;;4.90;4.50;;;20.00;96.00;;;;;;5114948;28;20230;-72
2022/07/03 05:28:45;;;;;;;4.40;4.10;;;20.00;95.80;;;;;;5131188;27;20215;-72
2022/07/03 05:31:11;;;;;;;6.23;5.73;;;20.10;95.80;;;;;;5095832;28;20180;-74
2022/07/03 05:33:37;;;;;;;5.10;4.80;;;20.10;95.60;;;;;;5095793;28;20211;-72
2022/07/03 05:36:04;;;;;;;4.53;4.20;;;20.20;95.40;;;;;;5096477;28;20280;-72
2022/07/03 05:41:16;;;;;;;4.63;4.43;;;20.30;95.10;;;;;;5104828;27;20477;-73
2022/07/03 05:43:41;;;;;;;5.00;4.80;;;20.40;95.60;;;;;;5136674;27;20455;-72
2022/07/03 05:46:07;;;;;;;4.73;4.43;;;20.40;96.50;;;;;;5129323;27;20429;-72
2022/07/03 05:48:33;;;;;;;5.20;5.00;;;20.50;97.00;;;;;;5115560;28;20203;-72
2022/07/03 05:50:58;;;;;;;4.90;4.60;;;20.60;96.70;;;;;;5116226;28;20183;-72
2022/07/03 05:53:24;;;;;;;4.77;4.40;;;20.60;96.30;;;;;;5113180;28;20580;-72
2022/07/03 05:55:50;;;;;;;5.20;4.90;;;20.70;96.20;;;;;;5131683;27;20214;-72
2022/07/03 05:58:16;;;;;;;4.50;4.30;;;20.70;96.00;;;;;;5131607;27;20537;-73
2022/07/03 06:00:42;;;;;;;4.87;4.67;;;20.80;95.90;;;;;;5136565;27;20175;-72
2022/07/03 06:03:08;;;;;;;5.13;4.83;;;20.90;95.60;;;;;;5135173;27;20460;-72
2022/07/03 06:05:34;;;;;;;5.03;4.70;;;20.90;95.60;;;;;;5134500;27;20409;-72
2022/07/03 06:08:00;;;;;;;4.83;4.53;;;20.90;95.50;;;;;;5135072;27;20788;-72
2022/07/03 06:10:28;;;;;;;4.90;4.50;;;21.00;94.80;;;;;;5132602;27;20408;-72
2022/07/03 06:12:54;;;;;;;4.97;4.67;;;21.10;94.60;;;;;;5133958;27;20447;-72
2022/07/03 06:15:20;;;;;;;4.93;4.63;;;21.00;92.70;;;;;;5106547;27;20923;-72
2022/07/03 06:17:46;;;;;;;6.50;4.40;;;20.90;93.10;;;;;;5132528;27;20443;-72
2022/07/03 06:20:12;;;;;;;5.00;4.70;;;21.00;94.40;;;;;;5122309;27;20188;-74
2022/07/03 06:22:38;;;;;;;9.97;4.67;;;21.10;94.60;;;;;;5129637;27;20531;-72
2022/07/03 06:25:05;;;;;;;4.33;4.13;;;21.30;94.50;;;;;;5100133;28;20432;-72
2022/07/03 06:27:30;;;;;;;4.93;4.67;;;21.40;94.20;;;;;;5111937;28;20512;-72
2022/07/03 06:29:56;;;;;;;4.43;4.13;;;21.50;95.30;;;;;;5135533;27;20499;-71
2022/07/03 06:32:22;;;;;;;4.43;4.20;;;21.60;95.90;;;;;;5121107;27;20316;-72
2022/07/03 06:34:48;;;;;;;4.93;4.63;;;21.70;95.80;;;;;;5113063;27;20715;-72
2022/07/03 06:37:14;;;;;;;4.33;4.10;;;21.80;99.40;;;;;;5123633;27;20179;-75
2022/07/03 06:39:40;;;;;;;4.43;4.13;;;22.00;99.00;;;;;;5100923;28;20517;-73
2022/07/03 06:42:05;;;;;;;4.43;4.07;;;22.20;96.40;;;;;;5101900;28;20823;-72
2022/07/03 06:44:31;;;;;;;4.40;4.10;;;22.30;97.90;;;;;;5107154;28;20195;-72
2022/07/03 06:46:57;;;;;;;4.03;3.83;;;22.50;95.60;;;;;;5109890;28;20175;-72
2022/07/03 06:49:23;;;;;;;4.50;4.20;;;22.60;96.40;;;;;;5112879;28;20424;-72
2022/07/03 06:51:49;;;;;;;4.50;4.10;;;22.70;95.70;;;;;;5113656;28;20183;-72
2022/07/03 06:54:15;;;;;;;4.10;3.80;;;22.80;96.10;;;;;;5113290;28;20434;-74
2022/07/03 06:56:42;;;;;;;5.40;4.90;;;22.90;95.10;;;;;;5094220;28;20629;-72
2022/07/03 06:59:08;;;;;;;10.93;9.70;;;23.00;94.40;;;;;;5108785;28;20176;-72
2022/07/03 07:01:34;;;;;;;5.80;5.37;;;23.10;94.60;;;;;;5105890;28;21099;-72
2022/07/03 07:04:00;;;;;;;4.73;4.43;;;23.20;94.00;;;;;;5117577;27;20461;-72
2022/07/03 07:06:26;;;;;;;5.23;4.90;;;23.30;92.90;;;;;;5110237;27;20480;-72
2022/07/03 07:08:51;;;;;;;7.60;7.00;;;23.30;92.90;;;;;;5110835;28;20180;-72
2022/07/03 07:11:17;;;;;;;7.03;6.40;;;23.40;92.10;;;;;;5109471;28;20611;-75
2022/07/03 07:13:43;;;;;;;5.97;5.47;;;23.40;92.90;;;;;;5112634;28;20249;-72
2022/07/03 07:16:09;;;;;;;5.33;5.03;;;23.50;93.20;;;;;;5112390;28;20179;-73
2022/07/03 07:18:35;;;;;;;9.27;8.53;;;23.60;92.50;;;;;;5112005;28;20176;-72
2022/07/03 07:21:01;;;;;;;5.97;5.67;;;23.60;92.90;;;;;;5112705;28;20945;-72
2022/07/03 07:23:27;;;;;;;6.40;6.00;;;23.80;92.00;;;;;;5112812;27;20816;-71
2022/07/03 07:25:53;;;;;;;5.30;4.90;;;23.80;91.80;;;;;;5113767;27;20606;-76
2022/07/03 07:28:18;;;;;;;8.27;7.53;;;23.90;92.00;;;;;;5113389;27;20225;-76
2022/07/03 07:30:44;;;;;;;4.33;4.03;;;24.00;91.30;;;;;;5111093;28;20414;-72
2022/07/03 07:33:11;;;;;;;5.07;4.70;;;24.10;91.90;;;;;;5113120;28;20175;-74
2022/07/03 07:35:36;;;;;;;5.33;5.03;;;24.20;91.40;;;;;;5113102;27;20630;-77
2022/07/03 07:38:02;;;;;;;6.93;5.90;;;24.30;91.30;;;;;;5114127;27;20448;-69
2022/07/03 07:40:28;;;;;;;12.77;8.03;;;24.30;90.80;;;;;;5107678;27;20794;-68
2022/07/03 07:42:54;;;;;;;5.30;4.80;;;24.40;91.10;;;;;;5112885;27;20472;-70
2022/07/03 07:45:20;;;;;;;176.93;133.47;;;24.50;91.00;;;;;;5113356;27;20537;-69
2022/07/03 07:47:45;;;;;;;27.83;24.20;;;24.60;90.50;;;;;;5115219;27;20191;-70
2022/07/03 07:50:12;;;;;;;11.53;7.73;;;24.70;90.40;;;;;;5112465;27;20184;-69
2022/07/03 07:52:37;;;;;;;8.43;7.53;;;24.80;89.00;;;;;;5112613;27;20191;-74
2022/07/03 07:55:05;;;;;;;4.60;4.30;;;24.90;90.20;;;;;;5112970;27;20450;-70
2022/07/03 07:57:38;;;;;;;4.90;4.50;;;24.90;87.70;;;;;;5110478;27;20204;-69
2022/07/03 08:00:09;;;;;;;4.67;4.27;;;25.00;87.90;;;;;;5111559;27;20422;-68
2022/07/03 08:05:38;;;;;;;4.73;4.37;;;25.20;85.20;;;;;;5113747;27;20454;-67
2022/07/03 08:08:18;;;;;;;5.93;3.90;;;25.30;84.60;;;;;;5109752;27;21030;-66
2022/07/03 08:10:51;;;;;;;164.27;134.70;;;25.50;85.60;;;;;;5114875;27;20432;-68
2022/07/03 08:13:18;;;;;;;32.33;26.97;;;25.60;84.60;;;;;;5110892;28;20414;-69
2022/07/03 08:15:46;;;;;;;8.40;7.60;;;25.60;84.50;;;;;;5105146;28;20432;-68
2022/07/03 08:18:13;;;;;;;4.90;4.50;;;25.80;84.10;;;;;;5112370;28;20430;-68
2022/07/03 08:20:40;;;;;;;4.97;4.30;;;25.80;82.00;;;;;;5103196;28;20959;-68
2022/07/03 08:23:06;;;;;;;4.70;4.30;;;25.90;81.50;;;;;;5106187;28;20465;-68
2022/07/03 08:25:32;;;;;;;4.40;4.10;;;26.00;80.30;;;;;;5109278;28;20473;-68
2022/07/03 08:27:59;;;;;;;8.07;5.77;;;26.10;80.40;;;;;;5110277;27;20429;-68
2022/07/03 08:30:25;;;;;;;3.97;3.77;;;26.20;79.30;;;;;;5110282;27;20413;-68
2022/07/03 08:32:54;;;;;;;4.20;3.90;;;26.30;81.10;;;;;;5113642;27;20425;-68
2022/07/03 08:35:20;;;;;;;4.53;4.23;;;26.40;79.30;;;;;;5105602;28;20436;-72
2022/07/03 08:37:48;;;;;;;5.00;4.70;;;26.50;78.40;;;;;;5102357;27;21175;-70
2022/07/03 08:40:15;;;;;;;10.97;4.13;;;26.60;78.00;;;;;;5115495;27;20437;-69
2022/07/03 08:42:48;;;;;;;4.37;4.07;;;26.70;78.70;;;;;;5112408;27;20509;-70
2022/07/03 08:45:16;;;;;;;7.43;6.70;;;26.70;76.80;;;;;;5106268;28;20543;-68
2022/07/03 08:47:43;;;;;;;5.20;4.80;;;26.80;76.60;;;;;;5106531;27;20433;-68
2022/07/03 08:50:12;;;;;;;5.70;5.30;;;26.80;78.70;;;;;;5126061;27;20417;-67
2022/07/03 08:52:38;;;;;;;6.80;6.20;;;26.90;78.90;;;;;;5124798;27;20605;-68
2022/07/03 08:55:05;;;;;;;4.50;4.10;;;26.90;78.70;;;;;;5112363;28;20408;-68
2022/07/03 08:57:35;;;;;;;4.77;4.47;;;26.90;75.70;;;;;;5110158;28;20467;-69
2022/07/03 09:00:07;;;;;;;5.40;4.90;;;27.00;77.90;;;;;;5115276;27;20920;-68
2022/07/03 09:02:33;;;;;;;3.93;3.63;;;27.00;76.80;;;;;;5110785;28;20525;-71
2022/07/03 09:05:01;;;;;;;4.30;4.00;;;27.00;75.80;;;;;;5106255;28;20517;-68
2022/07/03 09:07:28;;;;;;;4.50;4.10;;;27.00;74.40;;;;;;5093143;28;20442;-68
2022/07/03 09:09:55;;;;;;;4.43;4.13;;;27.10;76.00;;;;;;5107241;28;20429;-68
2022/07/03 09:12:21;;;;;;;4.67;4.37;;;27.20;76.70;;;;;;5095825;28;20818;-71
2022/07/03 09:14:47;;;;;;;4.27;3.97;;;27.30;76.10;;;;;;5100935;28;20433;-69
2022/07/03 09:17:14;;;;;;;4.00;3.70;;;27.30;75.20;;;;;;5109968;28;20442;-68
2022/07/03 09:19:42;;;;;;;3.87;3.67;;;27.40;76.30;;;;;;5115311;28;20203;-68
2022/07/03 09:22:21;;;;;;;4.03;3.83;;;27.40;75.80;;;;;;5112272;28;20975;-69
2022/07/03 09:24:48;;;;;;;5.30;4.93;;;27.50;74.20;;;;;;5130380;27;20430;-68
2022/07/03 09:27:17;;;;;;;4.67;4.40;;;27.60;75.80;;;;;;5111919;28;20756;-68
2022/07/03 09:30:03;;;;;;;6.30;5.70;;;27.70;73.70;;;;;;5112791;28;20441;-68
2022/07/03 09:32:45;;;;;;;5.83;5.20;;;27.80;73.80;;;;;;5110621;28;20951;-69
2022/07/03 09:35:22;;;;;;;6.47;4.97;;;27.90;71.90;;;;;;5106702;28;20462;-68
2022/07/03 09:38:08;;;;;;;5.30;5.00;;;27.90;71.80;;;;;;5107477;28;20457;-68
2022/07/03 09:40:50;;;;;;;5.40;5.00;;;27.90;72.90;;;;;;5109211;28;20431;-69
2022/07/03 09:43:21;;;;;;;4.67;4.37;;;28.00;72.90;;;;;;5106879;28;20452;-68
2022/07/03 09:45:54;;;;;;;62.13;55.33;;;28.10;72.80;;;;;;5111302;28;20397;-68
2022/07/03 09:48:21;;;;;;;54.97;48.77;;;28.10;71.30;;;;;;5113146;28;20444;-68
2022/07/03 09:50:47;;;;;;;6.43;6.03;;;28.20;72.50;;;;;;5108440;28;20446;-68
2022/07/03 09:53:12;;;;;;;5.80;5.40;;;28.20;72.60;;;;;;5111375;28;20413;-68
2022/07/03 09:55:38;;;;;;;9.37;5.73;;;28.30;72.40;;;;;;5108225;28;20623;-68
2022/07/03 09:58:04;;;;;;;5.27;4.87;;;28.30;71.00;;;;;;5111735;28;20184;-69
2022/07/03 10:00:33;;;;;;;5.20;4.90;;;28.10;70.00;;;;;;5110017;28;20570;-69
2022/07/03 10:03:07;;;;;;;4.60;4.27;;;27.90;70.50;;;;;;5106468;28;20822;-68
2022/07/03 10:05:38;;;;;;;5.83;4.70;;;28.00;72.10;;;;;;5103943;28;20437;-68
2022/07/03 10:08:05;;;;;;;4.60;4.30;;;28.10;73.30;;;;;;5109111;28;20457;-69
2022/07/03 10:10:33;;;;;;;4.70;4.30;;;28.20;73.50;;;;;;5112681;27;20432;-69
2022/07/03 10:12:59;;;;;;;4.43;4.03;;;28.30;72.20;;;;;;5133556;27;20472;-69
2022/07/03 10:15:27;;;;;;;26.40;23.80;;;28.40;70.40;;;;;;5090864;28;20464;-69
2022/07/03 10:17:56;;;;;;;133.07;119.33;;;28.50;69.30;;;;;;5094593;27;20435;-67
2022/07/03 10:20:45;;;;;;;8.03;7.37;;;28.50;68.90;;;;;;5115433;27;20951;-67
2022/07/03 10:23:11;;;;;;;5.40;4.97;;;28.70;70.20;;;;;;5109022;28;20530;-68
2022/07/03 10:25:40;;;;;;;6.00;5.53;;;28.80;70.00;;;;;;5106836;28;20465;-68
2022/07/03 10:28:07;;;;;;;5.47;5.13;;;28.80;69.30;;;;;;5109401;28;20272;-68
2022/07/03 10:30:34;;;;;;;5.60;5.20;;;28.80;68.80;;;;;;5097087;27;20426;-68
2022/07/03 10:32:59;;;;;;;5.37;4.97;;;28.90;68.40;;;;;;5115281;27;20429;-69
2022/07/03 10:35:40;;;;;;;4.50;4.17;;;29.00;68.70;;;;;;5114894;27;20470;-68
2022/07/03 10:38:30;;;;;;;6.40;4.50;;;29.10;68.90;;;;;;5112071;27;20623;-72
2022/07/03 10:46:42;;;;;;;5.50;5.00;;;29.00;69.80;;;;;;5116480;27;20446;-72
2022/07/03 10:49:12;;;;;;;4.20;3.90;;;28.60;67.80;;;;;;5116641;27;20447;-73
2022/07/03 10:51:51;;;;;;;4.40;4.00;;;28.60;64.80;;;;;;5113206;27;20186;-75
2022/07/03 10:54:20;;;;;;;4.33;4.13;;;28.50;66.40;;;;;;5129258;27;20469;-79
2022/07/03 10:56:58;;;;;;;4.30;4.00;;;28.30;66.90;;;;;;5113263;28;20414;-81
2022/07/03 10:59:47;;;;;;;7.13;4.10;;;28.30;63.60;;;;;;5113463;28;20424;-85
2022/07/03 11:02:35;;;;;;;4.40;4.10;;;28.20;65.40;;;;;;5109607;28;20509;-76
2022/07/03 11:05:01;;;;;;;5.20;4.70;;;28.20;66.20;;;;;;5111799;27;20464;-75
2022/07/03 11:07:31;;;;;;;4.10;3.80;;;28.20;66.30;;;;;;5113613;27;20458;-74
2022/07/03 11:10:15;;;;;;;11.73;6.13;;;28.10;68.40;;;;;;5113352;28;20224;-70
2022/07/03 11:12:56;;;;;;;5.20;4.20;;;28.20;70.30;;;;;;5112531;27;20985;-74
2022/07/03 11:15:52;;;;;;;6.20;5.60;;;27.80;68.20;;;;;;5112984;27;20417;-74
2022/07/03 11:18:27;;;;;;;6.67;6.10;;;27.60;70.00;;;;;;5111062;27;20441;-81
2022/07/03 11:20:53;;;;;;;4.73;4.43;;;27.30;70.50;;;;;;5108600;27;20483;-75
2022/07/03 11:23:27;;;;;;;4.30;3.90;;;27.20;69.90;;;;;;5112551;27;20461;-75
2022/07/03 11:25:53;;;;;;;4.30;4.00;;;27.20;66.30;;;;;;5110102;27;20183;-76
2022/07/03 11:28:33;;;;;;;5.33;5.03;;;27.20;65.80;;;;;;5107397;27;20929;-74
2022/07/03 11:31:11;;;;;;;4.70;4.40;;;27.00;70.70;;;;;;5112122;27;20226;-76
2022/07/03 11:33:43;;;;;;;4.23;4.03;;;27.00;65.80;;;;;;5108308;27;20441;-71
2022/07/03 11:36:16;;;;;;;4.37;4.07;;;27.10;69.40;;;;;;5113865;27;20425;-75
2022/07/03 11:38:57;;;;;;;4.20;4.00;;;27.20;68.40;;;;;;5108637;28;20406;-76
2022/07/03 11:41:41;;;;;;;4.40;4.20;;;27.20;66.50;;;;;;5110425;28;20971;-76
2022/07/03 11:44:08;;;;;;;4.30;4.10;;;27.40;65.60;;;;;;5111686;27;20563;-77
2022/07/03 11:46:37;;;;;;;4.40;4.20;;;27.60;65.80;;;;;;5111831;28;20440;-77
2022/07/03 11:49:21;;;;;;;4.37;4.17;;;27.70;65.30;;;;;;5105379;28;20967;-81
2022/07/03 11:51:56;;;;;;;4.43;4.23;;;27.90;66.20;;;;;;5111797;27;21077;-79
2022/07/03 11:54:22;;;;;;;152.63;128.30;;;28.20;65.90;;;;;;5109124;28;20428;-79
2022/07/03 11:56:48;;;;;;;36.80;33.57;;;28.30;65.90;;;;;;5110690;27;20864;-80
2022/07/03 11:59:13;;;;;;;41.20;37.37;;;28.40;65.10;;;;;;5109080;28;20917;-79
2022/07/03 12:01:39;;;;;;;26.73;24.50;;;28.60;62.60;;;;;;5110841;28;20430;-82
2022/07/03 12:04:16;;;;;;;4.70;4.40;;;28.70;64.90;;;;;;5112215;28;20503;-80
2022/07/03 12:06:50;;;;;;;8.70;7.93;;;28.80;63.90;;;;;;5111694;28;20176;-81
2022/07/03 12:09:29;;;;;;;4.40;4.10;;;28.90;61.00;;;;;;5092498;28;20425;-76
2022/07/03 12:12:03;;;;;;;5.50;4.40;;;28.90;59.10;;;;;;5105430;28;20455;-77
2022/07/03 12:14:44;;;;;;;5.70;5.40;;;29.00;59.70;;;;;;5110214;27;21063;-79
2022/07/03 12:17:13;;;;;;;6.27;5.80;;;29.00;61.00;;;;;;5110366;27;20786;-78
2022/07/03 12:19:45;;;;;;;6.50;5.37;;;28.90;63.20;;;;;;5111126;28;20769;-77
2022/07/03 12:22:10;;;;;;;5.20;4.70;;;28.90;60.50;;;;;;5110759;27;20444;-77
2022/07/03 12:24:36;;;;;;;4.67;4.40;;;28.90;61.30;;;;;;5112048;27;20794;-76
2022/07/03 12:27:04;;;;;;;9.20;8.50;;;28.90;63.00;;;;;;5111910;28;20174;-81
2022/07/03 12:29:31;;;;;;;6.50;6.00;;;28.80;63.50;;;;;;5109500;27;20624;-79
2022/07/03 12:31:57;;;;;;;7.47;5.70;;;28.50;63.40;;;;;;5106445;28;20507;-78
2022/07/03 12:34:22;;;;;;;5.90;5.50;;;28.10;62.70;;;;;;5108455;28;20429;-78
2022/07/03 12:36:59;;;;;;;4.50;4.30;;;27.80;63.50;;;;;;5108324;27;21517;-77
2022/07/03 12:39:44;;;;;;;5.20;4.80;;;27.60;61.40;;;;;;5109638;27;20174;-75
2022/07/03 12:42:21;;;;;;;5.43;5.13;;;27.40;60.90;;;;;;5111328;28;20409;-77
2022/07/03 12:45:01;;;;;;;3.40;3.30;;;27.20;60.70;;;;;;5109563;28;20413;-79
2022/07/03 12:47:29;;;;;;;5.17;4.77;;;27.20;59.80;;;;;;5110886;28;20429;-75
2022/07/03 12:50:02;;;;;;;3.70;3.60;;;27.20;61.10;;;;;;5111319;28;20908;-79
2022/07/03 12:52:30;;;;;;;5.20;4.80;;;27.20;60.90;;;;;;5108509;28;20876;-78
2022/07/03 12:54:56;;;;;;;4.30;4.10;;;27.10;61.40;;;;;;5110806;28;20417;-76
2022/07/03 13:00:10;;;;;;;17.42;15.77;;;26.80;61.20;;;;;;5110392;28;20799;-74
2022/07/03 13:02:37;;;;;;;4.73;4.50;;;26.70;61.50;;;;;;5104459;28;20460;-74
2022/07/03 13:05:24;;;;;;;5.07;4.70;;;26.80;62.80;;;;;;5110208;28;20421;-74
2022/07/03 13:07:52;;;;;;;3.63;3.53;;;26.80;64.40;;;;;;5110444;28;20444;-79
2022/07/03 13:10:20;;;;;;;4.33;4.13;;;27.00;62.80;;;;;;5113018;28;20425;-82
2022/07/03 13:12:53;;;;;;;3.80;3.60;;;27.20;63.50;;;;;;5111055;28;20433;-79
2022/07/03 13:15:20;;;;;;;4.03;3.83;;;27.50;65.40;;;;;;5111739;28;20424;-83